Time;durP1;ratioP1;P1;durP2;ratioP2;P2;SDS_P1;SDS_P2;PMS_P1;PMS_P2;Temp;Humidity;BMP_temperature;BMP_pressure;BME280_temperature;BME280_humidity;BME280_pressure;Samples;Min_cycle;Max_cycle;Signal;HPM_P1;HPM_P2
2021/12/04 00:01:52;;;;;;;20.47;15.10;;;;;;;3.31;100.00;99962.72;5070191;28;20096;-64
2021/12/04 00:04:26;;;;;;;20.17;14.17;;;;;;;3.31;100.00;99957.47;5069138;28;20439;-63
2021/12/04 00:06:51;;;;;;;18.00;14.67;;;;;;;3.31;100.00;99949.59;5070336;28;20548;-64
2021/12/04 00:09:18;;;;;;;19.60;14.40;;;;;;;3.31;100.00;99949.59;5068203;28;20024;-64
2021/12/04 00:11:54;;;;;;;19.53;14.63;;;;;;;3.30;100.00;99935.66;5069906;28;20024;-64
2021/12/04 00:14:19;;;;;;;19.47;13.77;;;;;;;3.30;100.00;99935.66;5042698;28;20023;-63
2021/12/04 00:16:45;;;;;;;18.87;14.23;;;;;;;3.30;100.00;99930.41;5069043;28;20088;-64
2021/12/04 00:19:11;;;;;;;22.37;14.53;;;;;;;3.30;100.00;99924.31;5068024;28;20033;-64
2021/12/04 00:21:36;;;;;;;18.30;14.63;;;;;;;3.31;100.00;99933.84;5068797;28;20698;-64
2021/12/04 00:24:02;;;;;;;19.53;14.47;;;;;;;3.31;100.00;99925.97;5067938;28;20082;-63
2021/12/04 00:26:27;;;;;;;19.23;14.83;;;;;;;3.32;100.00;99930.25;5068737;28;20064;-63
2021/12/04 00:28:52;;;;;;;20.87;14.70;;;;;;;3.31;100.00;99921.56;5068512;28;20475;-63
2021/12/04 00:31:18;;;;;;;20.00;14.67;;;;;;;3.31;100.00;99923.34;5069367;28;20040;-63
2021/12/04 00:33:45;;;;;;;23.70;14.77;;;;;;;3.32;100.00;99920.56;5068173;28;20021;-63
2021/12/04 00:50:00;;;;;;;16.80;13.17;;;;;;;3.38;100.00;99912.13;5068964;28;20054;-63
2021/12/04 00:52:26;;;;;;;17.80;12.90;;;;;;;3.38;100.00;99906.03;5067717;28;20020;-63
2021/12/04 00:54:51;;;;;;;18.63;13.47;;;;;;;3.38;100.00;99896.38;5066877;28;20391;-63
2021/12/04 00:57:17;;;;;;;17.37;13.00;;;;;;;3.38;99.95;99899.00;5068175;28;20530;-63
2021/12/04 00:59:42;;;;;;;20.80;14.70;;;;;;;3.37;100.00;99905.22;5068007;28;20550;-63
2021/12/04 01:02:07;;;;;;;17.93;13.30;;;;;;;3.39;100.00;99908.50;5065930;28;20078;-63
2021/12/04 01:04:33;;;;;;;17.23;13.20;;;;;;;3.40;99.94;99914.59;5068852;28;20115;-63
2021/12/04 01:06:58;;;;;;;17.93;12.57;;;;;;;3.39;100.00;99913.75;5063393;28;20024;-63
2021/12/04 01:09:25;;;;;;;16.97;13.13;;;;;;;3.39;99.88;99908.50;5066921;28;20400;-63
2021/12/04 01:11:53;;;;;;;15.97;12.17;;;;;;;3.40;99.98;99906.72;5068640;28;20020;-63
2021/12/04 01:14:21;;;;;;;16.93;13.17;;;;;;;3.41;100.00;99917.06;5067096;28;20394;-63
2021/12/04 01:16:47;;;;;;;16.93;12.00;;;;;;;3.41;99.98;99913.63;5068103;28;20372;-64
2021/12/04 01:19:18;;;;;;;15.80;12.93;;;;;;;3.41;99.90;99914.44;5067887;28;20036;-64
2021/12/04 01:21:43;;;;;;;17.67;12.40;;;;;;;3.42;100.00;99923.13;5067849;28;20016;-64
2021/12/04 01:24:09;;;;;;;16.90;12.83;;;;;;;3.40;100.00;99912.78;5071901;28;20042;-64
2021/12/04 01:26:34;;;;;;;17.40;12.43;;;;;;;3.42;100.00;99908.22;5067763;28;20387;-64
2021/12/04 01:28:59;;;;;;;15.80;13.03;;;;;;;3.44;100.00;99910.69;5066444;28;20017;-64
2021/12/04 01:31:25;;;;;;;16.47;12.33;;;;;;;3.45;100.00;99908.91;5071677;28;20028;-63
2021/12/04 01:33:51;;;;;;;16.00;13.10;;;;;;;3.42;99.89;99900.34;5067064;28;20024;-64
2021/12/04 01:36:16;;;;;;;15.97;13.03;;;;;;;3.46;99.90;99907.91;5068661;28;20024;-63
2021/12/04 01:38:41;;;;;;;15.90;12.17;;;;;;;3.44;100.00;99905.44;5066695;28;20598;-64
2021/12/04 01:41:07;;;;;;;18.17;12.60;;;;;;;3.48;100.00;99911.25;5068129;28;20107;-63
2021/12/04 01:43:33;;;;;;;16.67;12.77;;;;;;;3.48;99.88;99906.00;5067716;28;20020;-64
2021/12/04 01:45:58;;;;;;;18.20;12.70;;;;;;;3.47;100.00;99899.06;5067955;28;20682;-64
2021/12/04 01:48:24;;;;;;;16.90;12.80;;;;;;;3.49;100.00;99902.41;5067432;28;20028;-63
2021/12/04 01:50:50;;;;;;;20.47;12.97;;;;;;;3.49;100.00;99908.47;5067672;28;20028;-64
2021/12/04 01:53:16;;;;;;;18.83;13.40;;;;;;;3.50;100.00;99901.44;5068202;28;20553;-64
2021/12/04 01:55:41;;;;;;;21.23;13.00;;;;;;;3.48;99.85;99898.13;5064744;28;20108;-63
2021/12/04 01:58:07;;;;;;;17.47;12.83;;;;;;;3.49;100.00;99905.03;5067070;28;20024;-64
2021/12/04 02:00:37;;;;;;;18.80;13.30;;;;;;;3.51;100.00;99895.19;5068155;28;20029;-63
2021/12/04 02:03:04;;;;;;;17.87;13.67;;;;;;;3.51;100.00;99901.28;5066900;28;20043;-63
2021/12/04 02:05:30;;;;;;;19.80;13.43;;;;;;;3.52;99.75;99894.22;5074863;28;20020;-64
2021/12/04 02:07:55;;;;;;;19.60;13.17;;;;;;;3.52;100.00;99888.97;5072192;28;20021;-64
2021/12/04 02:10:21;;;;;;;16.90;13.10;;;;;;;3.53;100.00;99885.38;5074031;28;20480;-63
2021/12/04 02:12:48;;;;;;;18.93;13.53;;;;;;;3.50;100.00;99867.31;5073682;28;20032;-64
2021/12/04 02:15:14;;;;;;;20.87;12.60;;;;;;;3.53;99.93;99865.19;5074378;28;20032;-63
2021/12/04 02:17:40;;;;;;;20.47;13.33;;;;;;;3.53;100.00;99856.50;5072074;28;20048;-64
2021/12/04 02:20:15;;;;;;;17.97;13.30;;;;;;;3.55;99.70;99849.31;5077704;28;20067;-63
2021/12/04 02:22:41;;;;;;;16.73;12.87;;;;;;;3.54;100.00;99845.84;5073009;28;20029;-63
2021/12/04 02:25:09;;;;;;;19.07;13.97;;;;;;;3.51;99.67;99837.47;5073645;28;20086;-64
2021/12/04 02:27:34;;;;;;;17.63;12.50;;;;;;;3.52;99.99;99834.69;5072779;28;20116;-64
2021/12/04 02:30:00;;;;;;;20.97;13.37;;;;;;;3.55;99.71;99837.00;5073580;28;20107;-64
2021/12/04 02:32:25;;;;;;;20.47;13.30;;;;;;;3.56;100.00;99837.84;5073899;28;20024;-64
2021/12/04 02:34:50;;;;;;;21.77;13.47;;;;;;;3.55;100.00;99833.56;5074582;28;20059;-64
2021/12/04 02:37:16;;;;;;;21.80;13.70;;;;;;;3.55;99.68;99825.69;5066149;28;20082;-64
2021/12/04 02:39:45;;;;;;;21.70;13.53;;;;;;;3.55;99.68;99833.56;5072077;28;20526;-64
2021/12/04 02:42:24;;;;;;;19.92;13.45;;;;;;;3.57;99.85;99823.72;5074084;28;20087;-64
2021/12/04 02:44:49;;;;;;;19.10;13.57;;;;;;;3.56;99.98;99822.09;5075429;28;20016;-64
2021/12/04 02:47:16;;;;;;;24.70;13.90;;;;;;;3.57;99.88;99821.09;5075409;28;20103;-64
2021/12/04 02:49:42;;;;;;;20.57;14.17;;;;;;;3.57;99.82;99821.94;5070966;28;20031;-64
2021/12/04 02:52:09;;;;;;;20.83;13.67;;;;;;;3.54;99.79;99808.28;5072898;28;20111;-63
2021/12/04 02:54:35;;;;;;;20.43;14.10;;;;;;;3.59;99.85;99814.72;5073749;28;20572;-64
2021/12/04 02:57:02;;;;;;;20.03;14.27;;;;;;;3.59;99.77;99819.97;5071074;28;20024;-63
2021/12/04 02:59:27;;;;;;;20.80;13.83;;;;;;;3.57;99.81;99813.22;5071401;28;20032;-64
2021/12/04 03:01:55;;;;;;;23.90;14.30;;;;;;;3.60;99.71;99819.00;5073334;28;20028;-63
2021/12/04 03:04:24;;;;;;;21.50;14.77;;;;;;;3.60;99.70;99820.81;5074100;28;20028;-64
2021/12/04 03:06:50;;;;;;;21.35;14.05;;;;;;;3.58;99.60;99807.81;5074501;28;20028;-63
2021/12/04 03:09:16;;;;;;;23.10;14.27;;;;;;;3.61;99.67;99811.94;5072624;28;20404;-64
2021/12/04 03:11:42;;;;;;;24.97;14.80;;;;;;;3.60;99.81;99807.69;5074353;28;20050;-63
2021/12/04 03:14:07;;;;;;;21.17;14.67;;;;;;;3.60;99.89;99802.44;5069294;28;20538;-64
2021/12/04 03:16:34;;;;;;;23.70;15.70;;;;;;;3.61;99.87;99806.69;5069672;28;20021;-64
2021/12/04 03:19:00;;;;;;;23.97;14.93;;;;;;;3.61;99.60;99796.19;5069251;28;20031;-63
2021/12/04 03:21:26;;;;;;;23.60;15.00;;;;;;;3.61;99.78;99802.28;5070040;28;20107;-64
2021/12/04 03:23:58;;;;;;;23.93;15.00;;;;;;;3.60;99.86;99790.13;5067270;28;20059;-63
2021/12/04 03:26:25;;;;;;;22.93;15.10;;;;;;;3.60;99.82;99784.88;5070412;28;20020;-64
2021/12/04 03:28:52;;;;;;;26.27;15.93;;;;;;;3.60;99.95;99791.91;5069220;28;20024;-64
2021/12/04 03:42:03;;;;;;;24.43;15.13;;;;;;;3.62;99.88;99785.53;5064689;28;20067;-64
2021/12/04 03:44:30;;;;;;;25.63;15.70;;;;;;;3.62;99.81;99774.22;5067229;28;20028;-64
2021/12/04 03:46:56;;;;;;;26.47;16.43;;;;;;;3.63;99.64;99778.50;5065708;28;20021;-64
2021/12/04 03:49:21;;;;;;;26.97;16.47;;;;;;;3.61;100.00;99772.56;5068904;28;20538;-64
2021/12/04 03:51:46;;;;;;;26.57;16.73;;;;;;;3.64;99.95;99769.63;5068301;28;20032;-64
2021/12/04 03:54:12;;;;;;;24.53;16.40;;;;;;;3.66;99.79;99759.81;5069426;28;20028;-64
2021/12/04 03:56:37;;;;;;;27.33;17.80;;;;;;;3.65;99.75;99755.53;5070129;28;20059;-64
2021/12/04 03:59:03;;;;;;;28.83;18.40;;;;;;;3.65;99.67;99763.41;5068276;28;20021;-64
2021/12/04 04:01:29;;;;;;;30.57;18.30;;;;;;;3.61;99.71;99760.28;5068970;28;20032;-64
2021/12/04 04:03:54;;;;;;;30.80;19.10;;;;;;;3.64;99.43;99762.59;5069016;28;20032;-64
2021/12/04 04:06:20;;;;;;;26.83;18.67;;;;;;;3.64;99.32;99769.63;5069743;28;20023;-64
2021/12/04 04:08:45;;;;;;;27.40;18.53;;;;;;;3.63;99.30;99760.13;5068909;28;20021;-64
2021/12/04 04:11:11;;;;;;;28.73;18.63;;;;;;;3.62;99.33;99758.47;5068325;28;20024;-64
2021/12/04 04:13:40;;;;;;;26.07;17.40;;;;;;;3.61;99.32;99751.56;5069607;28;20021;-64
2021/12/04 04:16:06;;;;;;;25.00;17.80;;;;;;;3.59;99.16;99741.22;5069294;28;20032;-64
2021/12/04 04:18:32;;;;;;;26.07;18.03;;;;;;;3.58;99.28;99744.00;5067477;28;20111;-64
2021/12/04 04:20:58;;;;;;;25.03;17.83;;;;;;;3.58;99.24;99738.75;5069062;28;20027;-64
2021/12/04 04:23:23;;;;;;;21.60;16.80;;;;;;;3.58;99.27;99736.13;5062963;28;20021;-64
2021/12/04 04:25:48;;;;;;;24.80;17.87;;;;;;;3.58;98.92;99733.50;5069452;28;20399;-64
2021/12/04 04:28:14;;;;;;;24.50;17.17;;;;;;;3.59;99.31;99727.28;5068128;28;20028;-64
2021/12/04 04:30:39;;;;;;;23.27;16.60;;;;;;;3.60;99.07;99744.66;5069189;28;20095;-64
2021/12/04 04:33:06;;;;;;;22.53;17.77;;;;;;;3.61;98.89;99743.69;5069319;28;20024;-64
2021/12/04 04:35:33;;;;;;;23.93;17.43;;;;;;;3.61;99.05;99741.91;5067594;28;20158;-64
2021/12/04 04:38:17;;;;;;;26.37;17.43;;;;;;;3.63;99.51;99741.75;5068545;28;20073;-64
2021/12/04 05:11:12;;;;;;;19.40;14.97;;;;;;;3.76;98.74;99708.03;5064360;28;20031;-64
2021/12/04 05:13:39;;;;;;;19.13;14.98;;;;;;;3.78;98.96;99719.22;5067932;28;20025;-64
2021/12/04 05:16:17;;;;;;;19.00;14.63;;;;;;;3.78;98.61;99711.34;5067750;28;20039;-64
2021/12/04 05:18:57;;;;;;;20.27;14.67;;;;;;;3.79;98.52;99712.97;5068086;28;20028;-64
2021/12/04 05:21:22;;;;;;;17.27;13.48;;;;;;;3.81;98.76;99710.19;5064355;28;20032;-64
2021/12/04 05:23:51;;;;;;;17.43;13.57;;;;;;;3.81;98.54;99703.16;5068503;28;20047;-64
2021/12/04 05:26:25;;;;;;;16.08;13.02;;;;;;;3.84;98.60;99702.84;5065550;28;20025;-64
2021/12/04 05:28:55;;;;;;;15.17;12.40;;;;;;;3.84;98.23;99713.34;5065147;28;20025;-64
2021/12/04 05:31:21;;;;;;;14.43;12.30;;;;;;;3.84;98.24;99708.09;5068290;28;20127;-64
2021/12/04 05:33:48;;;;;;;16.07;12.20;;;;;;;3.86;98.47;99700.06;5067715;28;20108;-64
2021/12/04 05:36:14;;;;;;;15.43;11.80;;;;;;;3.85;98.23;99703.66;5068703;28;20040;-64
2021/12/04 05:38:39;;;;;;;13.73;11.87;;;;;;;3.89;98.12;99702.38;5060547;28;20125;-65
2021/12/04 05:41:05;;;;;;;15.33;11.83;;;;;;;3.90;98.30;99712.72;5067258;28;20479;-65
2021/12/04 05:43:30;;;;;;;12.90;10.80;;;;;;;3.90;98.39;99712.72;5071855;28;20035;-65
2021/12/04 05:46:04;;;;;;;16.47;11.07;;;;;;;3.90;98.21;99712.72;5067945;28;20025;-64
2021/12/04 05:48:33;;;;;;;13.13;11.37;;;;;;;3.92;97.94;99716.00;5067149;28;20028;-64
2021/12/04 05:53:42;;;;;;;12.43;10.30;;;;;;;3.92;98.02;99716.00;5068194;28;20040;-64
2021/12/04 05:56:07;;;;;;;12.37;10.47;;;;;;;3.95;97.85;99718.31;5066925;28;20028;-64
2021/12/04 05:58:33;;;;;;;12.13;9.90;;;;;;;3.95;98.04;99705.19;5066960;28;20020;-64
2021/12/04 06:01:03;;;;;;;12.00;9.60;;;;;;;3.98;97.76;99696.16;5066809;28;20024;-64
2021/12/04 06:03:29;;;;;;;11.75;9.38;;;;;;;4.00;98.03;99694.22;5066949;28;20112;-64
2021/12/04 06:05:55;;;;;;;11.07;9.57;;;;;;;3.97;97.71;99686.63;5067161;28;20098;-64
2021/12/04 06:08:21;;;;;;;11.47;9.53;;;;;;;3.97;97.67;99686.63;5066560;28;20031;-64
2021/12/04 06:10:48;;;;;;;10.23;8.93;;;;;;;4.01;97.80;99687.97;5067952;28;20024;-64
2021/12/04 06:13:14;;;;;;;10.50;8.90;;;;;;;4.03;97.90;99686.84;5064897;28;20056;-64
2021/12/04 06:15:39;;;;;;;9.70;8.37;;;;;;;4.04;97.57;99685.84;5067315;28;20028;-64
2021/12/04 06:18:05;;;;;;;10.23;8.60;;;;;;;4.08;97.51;99680.31;5066310;28;20028;-65
2021/12/04 06:23:15;;;;;;;10.30;8.60;;;;;;;4.09;97.57;99680.16;5067382;28;20591;-64
2021/12/04 06:25:41;;;;;;;10.07;8.23;;;;;;;4.11;97.53;99677.38;5067251;28;20020;-64
2021/12/04 06:28:06;;;;;;;9.47;7.73;;;;;;;4.09;97.57;99680.16;5066542;28;20040;-64
2021/12/04 06:30:35;;;;;;;8.83;7.30;;;;;;;4.09;97.36;99679.31;5067189;28;20070;-64
2021/12/04 06:33:02;;;;;;;9.02;7.53;;;;;;;4.07;97.33;99678.66;5067848;28;20032;-64
2021/12/04 06:35:27;;;;;;;9.23;7.40;;;;;;;4.04;97.17;99682.41;5066963;28;20074;-64
2021/12/04 06:37:53;;;;;;;9.17;7.73;;;;;;;4.05;97.15;99694.59;5062694;28;20621;-65
2021/12/04 06:40:23;;;;;;;8.97;7.27;;;;;;;4.06;97.18;99687.53;5066531;28;20025;-64
2021/12/04 06:42:48;;;;;;;8.40;7.50;;;;;;;4.05;97.21;99689.34;5067389;28;20027;-64
2021/12/04 06:45:13;;;;;;;10.03;7.60;;;;;;;4.06;97.25;99690.97;5067192;28;20110;-64
2021/12/04 06:47:45;;;;;;;9.00;7.30;;;;;;;4.06;97.30;99685.72;5066152;28;20059;-65
2021/12/04 06:50:18;;;;;;;7.87;6.97;;;;;;;4.06;97.32;99684.91;5069625;28;20047;-64
2021/12/04 06:52:46;;;;;;;8.57;7.03;;;;;;;4.06;97.00;99680.47;5068804;28;20103;-64
2021/12/04 06:55:14;;;;;;;9.70;6.93;;;;;;;4.06;97.13;99683.09;5069333;28;20388;-64
2021/12/04 06:57:40;;;;;;;7.60;6.80;;;;;;;4.03;97.12;99688.63;5069432;28;20031;-65
2021/12/04 07:00:10;;;;;;;7.40;6.67;;;;;;;4.01;96.97;99688.78;5070914;28;20052;-64
2021/12/04 07:02:35;;;;;;;11.50;7.30;;;;;;;4.02;97.20;99679.09;5068692;28;20087;-64
2021/12/04 07:05:00;;;;;;;8.33;7.17;;;;;;;4.02;97.13;99679.94;5070794;28;20491;-64
2021/12/04 07:07:26;;;;;;;8.70;6.73;;;;;;;4.03;97.32;99680.75;5052989;28;20031;-64
2021/12/04 07:09:51;;;;;;;8.73;6.53;;;;;;;4.02;97.22;99676.47;5062464;28;20052;-64
2021/12/04 07:12:16;;;;;;;8.33;7.23;;;;;;;4.02;97.36;99679.94;5071087;28;20036;-64
2021/12/04 07:14:42;;;;;;;9.17;6.70;;;;;;;4.03;97.15;99680.75;5067174;28;20059;-64
2021/12/04 07:17:09;;;;;;;8.13;6.73;;;;;;;3.99;97.01;99676.78;5068464;28;20040;-64
2021/12/04 07:19:35;;;;;;;10.73;7.30;;;;;;;3.97;97.22;99676.13;5068808;28;20071;-64
2021/12/04 07:22:02;;;;;;;9.63;7.07;;;;;;;3.96;97.46;99671.88;5070553;28;20036;-64
2021/12/04 07:24:29;;;;;;;8.20;6.50;;;;;;;3.98;97.28;99670.72;5068990;28;20115;-64
2021/12/04 07:26:55;;;;;;;11.03;7.83;;;;;;;3.98;97.44;99678.59;5067123;28;20079;-64
2021/12/04 07:29:20;;;;;;;12.17;7.67;;;;;;;4.01;97.48;99678.28;5066632;28;20467;-64
2021/12/04 07:31:45;;;;;;;9.20;7.37;;;;;;;4.01;97.48;99673.03;5065911;28;20107;-64
2021/12/04 07:34:11;;;;;;;10.10;7.30;;;;;;;4.01;97.33;99678.28;5071323;28;20040;-64
2021/12/04 07:36:36;;;;;;;10.07;7.80;;;;;;;3.97;97.38;99674.34;5069532;28;20065;-65
2021/12/04 07:39:03;;;;;;;12.23;8.07;;;;;;;3.97;97.19;99686.63;5065377;28;20028;-64
2021/12/04 07:41:29;;;;;;;19.03;8.43;;;;;;;3.98;97.17;99681.22;5069162;28;20036;-64
2021/12/04 07:43:54;;;;;;;12.73;8.13;;;;;;;3.99;97.53;99679.44;5052880;28;20111;-64
2021/12/04 07:46:20;;;;;;;11.37;8.30;;;;;;;3.99;97.27;99679.44;5071795;28;20048;-65
2021/12/04 07:48:45;;;;;;;12.20;8.03;;;;;;;3.99;97.11;99674.16;5068133;28;20402;-65
2021/12/04 07:51:12;;;;;;;13.47;8.50;;;;;;;3.98;97.62;99673.34;5070353;28;20077;-64
2021/12/04 07:53:37;;;;;;;14.73;9.10;;;;;;;4.01;97.70;99672.22;5069823;28;20027;-64
2021/12/04 07:56:03;;;;;;;13.17;8.53;;;;;;;4.02;97.54;99666.81;5064308;28;20029;-64
2021/12/04 07:58:29;;;;;;;14.67;9.07;;;;;;;4.05;97.62;99665.69;5065576;28;20082;-64
2021/12/04 08:00:55;;;;;;;13.70;9.27;;;;;;;4.02;97.43;99661.53;5068393;28;20036;-64
2021/12/04 08:03:21;;;;;;;15.47;8.97;;;;;;;4.06;97.74;99669.13;5069820;28;20040;-64
2021/12/04 08:05:46;;;;;;;15.10;9.17;;;;;;;4.06;97.04;99656.81;5062920;28;20431;-64
2021/12/04 08:08:12;;;;;;;12.30;8.63;;;;;;;4.06;97.57;99664.72;5068861;28;20107;-65
2021/12/04 08:10:38;;;;;;;12.77;9.03;;;;;;;4.08;97.65;99664.56;5068694;28;20017;-64
2021/12/04 08:13:04;;;;;;;13.67;8.93;;;;;;;4.09;97.63;99663.56;5068091;28;20058;-65
2021/12/04 08:15:31;;;;;;;15.53;10.00;;;;;;;4.09;97.22;99663.56;5070171;28;20055;-64
2021/12/04 08:17:56;;;;;;;15.50;9.17;;;;;;;4.11;97.50;99661.59;5065729;28;20119;-65
2021/12/04 08:20:25;;;;;;;17.00;9.90;;;;;;;4.13;97.56;99654.38;5069442;28;20120;-65
2021/12/04 08:22:50;;;;;;;14.33;9.60;;;;;;;4.16;97.62;99641.75;5069826;28;20032;-65
2021/12/04 08:25:18;;;;;;;16.17;10.23;;;;;;;4.18;97.71;99634.53;5068392;28;20089;-65
2021/12/04 08:27:44;;;;;;;18.10;11.20;;;;;;;4.21;97.46;99630.75;5069218;28;20048;-65
2021/12/04 08:30:14;;;;;;;15.37;10.53;;;;;;;4.24;97.69;99625.19;5064839;28;20086;-64
2021/12/04 08:32:39;;;;;;;14.77;9.75;;;;;;;4.25;97.49;99632.06;5049625;28;20060;-64
2021/12/04 08:35:09;;;;;;;13.40;9.40;;;;;;;4.26;97.48;99621.41;5061522;28;20054;-65
2021/12/04 08:37:34;;;;;;;;;;;;;;;4.33;97.38;99624.22;5060222;28;20039;-66
2021/12/04 08:40:00;;;;;;;14.50;9.57;;;;;;;4.28;97.60;99616.00;5061071;28;19920;-65
2021/12/04 08:42:26;;;;;;;14.30;9.63;;;;;;;4.28;97.24;99606.31;5059853;28;20104;-65
2021/12/04 08:44:52;;;;;;;14.90;9.40;;;;;;;4.28;97.42;99594.97;5062421;28;20024;-65
2021/12/04 08:47:17;;;;;;;16.50;9.77;;;;;;;4.31;97.31;99595.47;5061265;28;20060;-65
2021/12/04 08:49:43;;;;;;;14.53;9.27;;;;;;;4.30;97.24;99598.25;5058597;28;20067;-65
2021/12/04 08:52:10;;;;;;;13.30;9.63;;;;;;;4.29;96.91;99597.44;5060520;28;20029;-65
2021/12/04 08:54:37;;;;;;;11.90;9.57;;;;;;;4.31;97.04;99603.34;5062474;28;20082;-65
2021/12/04 08:57:03;;;;;;;13.33;9.47;;;;;;;4.34;96.89;99596.97;5068968;28;20058;-65
2021/12/04 08:59:29;;;;;;;11.57;8.83;;;;;;;4.34;97.00;99604.88;5068890;28;20064;-65
2021/12/04 09:01:54;;;;;;;11.67;9.00;;;;;;;4.34;97.20;99607.50;5080011;28;20039;-65
2021/12/04 09:04:24;;;;;;;12.20;9.57;;;;;;;4.37;96.82;99608.97;5059468;28;20038;-65
2021/12/04 09:06:51;;;;;;;15.20;9.27;;;;;;;4.34;97.18;99613.56;5060182;28;20063;-65
2021/12/04 09:09:17;;;;;;;12.33;9.20;;;;;;;4.34;97.23;99612.75;5065267;28;20032;-65
2021/12/04 09:11:47;;;;;;;12.57;9.07;;;;;;;4.37;96.93;99607.16;5067689;28;20098;-65
2021/12/04 09:14:14;;;;;;;14.43;9.77;;;;;;;4.39;96.97;99607.81;5069494;28;20103;-65
2021/12/04 09:16:40;;;;;;;14.63;10.40;;;;;;;4.39;97.21;99605.19;5068722;28;20042;-65
2021/12/04 09:19:05;;;;;;;13.27;9.73;;;;;;;4.41;96.98;99611.13;5068087;28;20028;-65
2021/12/04 09:21:33;;;;;;;14.47;10.33;;;;;;;4.36;97.01;99602.91;5068634;28;20028;-65
2021/12/04 09:24:24;;;;;;;12.03;9.77;;;;;;;4.41;97.19;99597.97;5065711;28;20029;-65
2021/12/04 09:26:55;;;;;;;13.57;9.80;;;;;;;4.45;97.21;99594.03;5067500;28;20028;-65
2021/12/04 09:32:37;;;;;;;15.15;10.13;;;;;;;4.47;96.95;99594.69;5048136;28;20044;-65
2021/12/04 09:35:18;;;;;;;16.07;10.90;;;;;;;4.44;96.94;99581.88;5065796;28;20094;-65
2021/12/04 10:35:16;;;;;;;21.37;12.40;;;;;;;4.48;96.69;99533.25;5072548;28;20061;-65
2021/12/04 10:38:01;;;;;;;19.80;12.20;;;;;;;4.51;96.36;99527.66;5064195;28;20033;-65
2021/12/04 10:40:37;;;;;;;21.80;13.33;;;;;;;4.48;96.60;99528.00;5064972;28;20024;-65
2021/12/04 10:43:05;;;;;;;20.93;12.20;;;;;;;4.47;96.47;99521.09;5067966;28;20562;-65
2021/12/04 10:45:37;;;;;;;16.80;11.70;;;;;;;4.50;96.62;99512.06;5071674;28;20495;-65
2021/12/04 10:48:09;;;;;;;17.87;11.37;;;;;;;4.52;96.68;99503.00;5071325;28;20028;-65
2021/12/04 10:50:42;;;;;;;18.43;10.97;;;;;;;4.54;96.87;99501.03;5072211;28;20020;-65
2021/12/04 10:53:13;;;;;;;16.07;10.67;;;;;;;4.54;96.49;99494.97;5066290;28;20029;-65
2021/12/04 11:00:47;;;;;;;16.27;10.23;;;;;;;4.62;96.46;99482.63;5070544;28;20036;-65
2021/12/04 11:36:57;;;;;;;18.63;11.73;;;;;;;4.75;96.09;99439.25;4981639;28;20100;-65
2021/12/04 11:44:44;;;;;;;19.30;12.20;;;;;;;4.87;96.88;99435.25;5070337;28;20028;-65
2021/12/04 11:47:08;;;;;;;20.20;12.07;;;;;;;4.83;96.46;99433.94;5065378;28;20060;-65
2021/12/04 11:49:33;;;;;;;19.67;12.20;;;;;;;4.75;96.15;99418.19;5069605;28;20521;-65
2021/12/04 11:52:04;;;;;;;22.87;12.43;;;;;;;4.83;96.13;99429.50;5069582;28;20025;-65
2021/12/04 11:54:50;;;;;;;19.40;12.60;;;;;;;4.80;96.17;99421.97;5070574;28;20032;-65
2021/12/04 11:57:18;;;;;;;21.07;12.63;;;;;;;4.80;96.47;99421.13;5065724;28;20032;-65
2021/12/04 11:59:46;;;;;;;23.33;13.33;;;;;;;4.81;96.19;99409.63;5069369;28;20020;-65
2021/12/04 12:02:24;;;;;;;19.70;13.20;;;;;;;4.84;95.92;99404.03;5060907;28;20028;-65
2021/12/04 12:04:55;;;;;;;20.60;13.17;;;;;;;4.88;96.24;99405.31;5071313;28;20391;-65
2021/12/04 12:07:24;;;;;;;21.27;14.00;;;;;;;4.90;96.62;99390.19;5069960;28;20025;-65
2021/12/04 12:10:05;;;;;;;22.40;13.93;;;;;;;4.95;96.58;99398.44;5069658;28;20024;-65
2021/12/04 12:12:34;;;;;;;20.37;13.73;;;;;;;4.91;96.56;99382.13;5070216;28;20059;-65
2021/12/04 12:15:04;;;;;;;19.88;13.77;;;;;;;5.00;96.33;99384.75;5070851;28;20024;-65
2021/12/04 12:17:32;;;;;;;22.03;13.63;;;;;;;4.99;96.30;99391.84;5062495;28;20056;-65
2021/12/04 12:19:58;;;;;;;20.77;12.97;;;;;;;4.99;95.96;99389.19;5064179;28;20021;-65
2021/12/04 12:22:34;;;;;;;22.40;13.70;;;;;;;5.00;96.48;99387.38;5070662;28;20031;-65
2021/12/04 12:25:20;;;;;;;18.77;13.07;;;;;;;4.98;96.08;99375.22;5070155;28;20089;-65
2021/12/04 12:36:19;;;;;;;17.60;13.10;;;;;;;4.97;96.30;99380.66;5065359;28;20093;-65
2021/12/04 12:38:53;;;;;;;16.30;13.20;;;;;;;4.97;96.22;99385.91;5062190;28;20052;-65
2021/12/04 12:41:35;;;;;;;17.17;12.77;;;;;;;4.94;96.34;99384.44;5069273;28;20523;-65
2021/12/04 12:44:27;;;;;;;19.43;13.10;;;;;;;4.96;96.10;99386.91;5069110;28;20024;-65
2021/12/04 12:47:16;;;;;;;16.40;13.40;;;;;;;4.97;96.46;99389.38;5068922;28;20111;-64
2021/12/04 12:49:44;;;;;;;18.77;13.70;;;;;;;4.96;96.16;99390.38;5068010;28;20461;-65
2021/12/04 12:52:12;;;;;;;20.80;15.10;;;;;;;4.94;96.60;99391.53;5069486;28;20032;-65
2021/12/04 12:54:41;;;;;;;22.67;14.83;;;;;;;4.93;96.75;99393.34;5068620;28;20031;-65
2021/12/04 12:57:20;;;;;;;23.00;16.70;;;;;;;4.93;96.62;99384.63;5069403;28;20036;-65
2021/12/04 13:11:35;;;;;;;25.83;16.35;;;;;;;4.91;96.98;99382.13;5067920;28;20031;-64
2021/12/04 13:13:54;;;;;;;33.77;21.53;;;;;;;4.82;97.44;99372.63;5068274;28;20035;-65
2021/12/04 13:16:28;;;;;;;35.40;22.03;;;;;;;4.82;97.62;99377.09;5069282;28;20128;-64
2021/12/04 13:18:58;;;;;;;36.83;23.10;;;;;;;4.83;97.73;99370.81;5053743;28;20020;-64
2021/12/04 13:21:25;;;;;;;32.40;21.27;;;;;;;4.80;98.33;99365.91;5067570;28;20024;-64
2021/12/04 13:23:53;;;;;;;37.30;22.87;;;;;;;4.84;98.11;99377.72;5069353;28;20028;-64
2021/12/04 13:26:19;;;;;;;37.93;21.97;;;;;;;4.85;98.29;99372.28;5064374;28;20085;-64
2021/12/04 13:28:49;;;;;;;37.80;23.63;;;;;;;4.86;98.54;99373.13;5068023;28;20032;-64
2021/12/04 13:31:17;;;;;;;37.60;23.53;;;;;;;4.87;98.73;99364.25;5069552;28;20024;-64
2021/12/04 13:33:45;;;;;;;39.17;24.23;;;;;;;4.88;98.71;99365.88;5068962;28;20454;-64
2021/12/04 13:36:16;;;;;;;34.47;21.90;;;;;;;4.85;98.64;99359.16;5068937;28;20028;-64
2021/12/04 13:38:41;;;;;;;35.30;22.20;;;;;;;4.88;98.77;99355.34;5064684;28;20036;-64
2021/12/04 13:41:07;;;;;;;32.60;22.07;;;;;;;4.88;98.68;99355.34;5069291;28;20077;-64
2021/12/04 13:43:32;;;;;;;30.60;20.60;;;;;;;4.88;98.96;99364.06;5065630;28;20032;-63
2021/12/04 13:46:00;;;;;;;29.40;21.13;;;;;;;4.89;99.13;99359.63;5063317;28;20020;-63
2021/12/04 13:48:26;;;;;;;31.43;21.20;;;;;;;4.85;99.09;99353.88;5067574;28;20026;-63
2021/12/04 13:50:52;;;;;;;29.90;21.07;;;;;;;4.90;98.84;99366.53;5062929;28;20099;-64
2021/12/04 13:53:31;;;;;;;27.97;19.93;;;;;;;4.90;98.61;99371.78;5068746;28;20162;-64
2021/12/04 13:56:02;;;;;;;31.08;21.50;;;;;;;4.90;99.17;99366.53;5066670;28;20028;-64
2021/12/04 13:58:28;;;;;;;29.53;20.53;;;;;;;4.88;98.97;99360.63;5067825;28;20551;-63
2021/12/04 14:00:54;;;;;;;28.90;21.10;;;;;;;4.89;98.90;99363.06;5068455;28;20229;-64
2021/12/04 14:03:25;;;;;;;26.47;19.90;;;;;;;4.90;99.15;99369.97;5058742;28;20021;-64
2021/12/04 14:05:52;;;;;;;26.63;19.57;;;;;;;4.91;98.91;99365.53;5066926;28;20016;-64
2021/12/04 14:08:18;;;;;;;28.77;20.20;;;;;;;4.91;98.81;99362.91;5065209;28;20153;-63
2021/12/04 14:10:45;;;;;;;27.50;19.70;;;;;;;4.90;99.24;99369.97;5068990;28;20096;-64
2021/12/04 14:13:14;;;;;;;33.07;20.87;;;;;;;4.92;99.25;99369.84;5066449;28;20040;-64
2021/12/04 14:15:44;;;;;;;28.93;19.93;;;;;;;4.93;99.12;99368.84;5064179;28;20020;-63
2021/12/04 14:18:11;;;;;;;29.57;20.10;;;;;;;4.94;99.09;99367.84;5067794;28;20031;-64
2021/12/04 14:20:40;;;;;;;29.33;20.03;;;;;;;4.95;99.55;99372.13;5068237;28;20166;-64
2021/12/04 14:23:06;;;;;;;26.38;18.67;;;;;;;4.96;99.35;99364.06;5067616;28;20094;-64
2021/12/04 14:25:31;;;;;;;30.53;20.47;;;;;;;4.98;99.61;99361.25;5061895;28;20077;-64
2021/12/04 14:27:59;;;;;;;26.87;18.70;;;;;;;4.98;99.25;99375.22;5067374;28;20043;-64
2021/12/04 14:30:30;;;;;;;26.13;18.23;;;;;;;4.99;99.19;99370.78;5068181;28;20613;-64
2021/12/04 14:32:56;;;;;;;28.77;19.00;;;;;;;5.03;99.43;99376.53;5068570;28;20020;-64
2021/12/04 14:35:26;;;;;;;26.70;17.43;;;;;;;5.06;99.22;99378.81;5068381;28;20559;-64